sensor_id;sensor_type;location;lat;lon;timestamp;temperature;humidity
22923;DHT22;11627;51.322;22.816;2023-11-19T00:00:17;1.00;99.90
22923;DHT22;11627;51.322;22.816;2023-11-19T00:02:44;1.00;99.90
22923;DHT22;11627;51.322;22.816;2023-11-19T00:05:10;1.00;99.90
22923;DHT22;11627;51.322;22.816;2023-11-19T00:07:37;1.00;99.90
22923;DHT22;11627;51.322;22.816;2023-11-19T00:10:15;1.00;99.90
22923;DHT22;11627;51.322;22.816;2023-11-19T00:12:47;1.10;99.90
22923;DHT22;11627;51.322;22.816;2023-11-19T00:15:16;1.00;99.90
22923;DHT22;11627;51.322;22.816;2023-11-19T00:17:46;1.00;99.90
22923;DHT22;11627;51.322;22.816;2023-11-19T00:20:18;1.00;99.90
22923;DHT22;11627;51.322;22.816;2023-11-19T00:22:46;0.90;99.90
22923;DHT22;11627;51.322;22.816;2023-11-19T00:25:15;0.90;99.90
22923;DHT22;11627;51.322;22.816;2023-11-19T00:27:42;0.80;99.90
22923;DHT22;11627;51.322;22.816;2023-11-19T00:30:13;0.80;99.90
22923;DHT22;11627;51.322;22.816;2023-11-19T00:32:41;0.90;99.90
22923;DHT22;11627;51.322;22.816;2023-11-19T00:35:08;0.90;99.90
22923;DHT22;11627;51.322;22.816;2023-11-19T00:37:36;0.90;99.90
22923;DHT22;11627;51.322;22.816;2023-11-19T00:40:04;0.90;99.90
22923;DHT22;11627;51.322;22.816;2023-11-19T00:42:32;0.90;99.90
22923;DHT22;11627;51.322;22.816;2023-11-19T00:45:00;0.90;99.90
22923;DHT22;11627;51.322;22.816;2023-11-19T00:47:28;0.90;99.90
22923;DHT22;11627;51.322;22.816;2023-11-19T00:49:55;0.90;99.90
22923;DHT22;11627;51.322;22.816;2023-11-19T00:52:22;0.90;99.90
22923;DHT22;11627;51.322;22.816;2023-11-19T00:54:50;0.90;99.90
22923;DHT22;11627;51.322;22.816;2023-11-19T00:57:17;0.80;99.90
22923;DHT22;11627;51.322;22.816;2023-11-19T00:59:44;0.70;99.90
22923;DHT22;11627;51.322;22.816;2023-11-19T01:02:12;0.80;99.90
22923;DHT22;11627;51.322;22.816;2023-11-19T01:04:41;0.80;99.90
22923;DHT22;11627;51.322;22.816;2023-11-19T01:07:11;0.80;99.90
22923;DHT22;11627;51.322;22.816;2023-11-19T01:09:42;0.70;99.90
22923;DHT22;11627;51.322;22.816;2023-11-19T01:12:09;0.60;99.90
22923;DHT22;11627;51.322;22.816;2023-11-19T01:14:37;0.70;99.90
22923;DHT22;11627;51.322;22.816;2023-11-19T01:17:05;0.70;99.90
22923;DHT22;11627;51.322;22.816;2023-11-19T01:19:32;0.70;99.90
22923;DHT22;11627;51.322;22.816;2023-11-19T01:21:59;0.60;99.90
22923;DHT22;11627;51.322;22.816;2023-11-19T01:24:26;0.50;99.90
22923;DHT22;11627;51.322;22.816;2023-11-19T01:26:56;0.60;99.90
22923;DHT22;11627;51.322;22.816;2023-11-19T01:29:25;0.60;99.90
22923;DHT22;11627;51.322;22.816;2023-11-19T01:31:52;0.60;99.90
22923;DHT22;11627;51.322;22.816;2023-11-19T01:34:19;0.50;99.90
22923;DHT22;11627;51.322;22.816;2023-11-19T01:36:47;0.60;99.90
22923;DHT22;11627;51.322;22.816;2023-11-19T01:39:15;0.60;99.90
22923;DHT22;11627;51.322;22.816;2023-11-19T01:41:47;0.70;99.90
22923;DHT22;11627;51.322;22.816;2023-11-19T01:44:14;0.60;99.90
22923;DHT22;11627;51.322;22.816;2023-11-19T01:46:45;0.60;99.90
22923;DHT22;11627;51.322;22.816;2023-11-19T01:49:17;0.60;99.90
22923;DHT22;11627;51.322;22.816;2023-11-19T01:51:46;0.50;99.90
22923;DHT22;11627;51.322;22.816;2023-11-19T01:54:14;0.50;99.90
22923;DHT22;11627;51.322;22.816;2023-11-19T01:56:42;0.50;99.90
22923;DHT22;11627;51.322;22.816;2023-11-19T01:59:11;0.50;99.90
22923;DHT22;11627;51.322;22.816;2023-11-19T02:01:41;0.50;99.90
22923;DHT22;11627;51.322;22.816;2023-11-19T02:04:09;0.50;99.90
22923;DHT22;11627;51.322;22.816;2023-11-19T02:06:39;0.50;99.90
22923;DHT22;11627;51.322;22.816;2023-11-19T02:09:10;0.50;99.90
22923;DHT22;11627;51.322;22.816;2023-11-19T02:11:36;0.40;99.90
22923;DHT22;11627;51.322;22.816;2023-11-19T02:14:05;0.50;99.90
22923;DHT22;11627;51.322;22.816;2023-11-19T02:16:33;0.50;99.90
22923;DHT22;11627;51.322;22.816;2023-11-19T02:19:01;0.50;99.90
22923;DHT22;11627;51.322;22.816;2023-11-19T02:21:28;0.60;99.90
22923;DHT22;11627;51.322;22.816;2023-11-19T02:23:56;0.50;99.90
22923;DHT22;11627;51.322;22.816;2023-11-19T02:26:30;0.50;99.90
22923;DHT22;11627;51.322;22.816;2023-11-19T02:29:05;0.50;99.90
22923;DHT22;11627;51.322;22.816;2023-11-19T02:31:33;0.50;99.90
22923;DHT22;11627;51.322;22.816;2023-11-19T02:34:02;0.40;99.90
22923;DHT22;11627;51.322;22.816;2023-11-19T02:36:29;0.40;99.90
22923;DHT22;11627;51.322;22.816;2023-11-19T02:38:56;0.50;99.90
22923;DHT22;11627;51.322;22.816;2023-11-19T02:41:23;0.50;99.90
22923;DHT22;11627;51.322;22.816;2023-11-19T02:43:50;0.50;99.90
22923;DHT22;11627;51.322;22.816;2023-11-19T02:46:17;0.60;99.90
22923;DHT22;11627;51.322;22.816;2023-11-19T02:48:46;0.60;99.90
22923;DHT22;11627;51.322;22.816;2023-11-19T02:51:13;0.60;99.90
22923;DHT22;11627;51.322;22.816;2023-11-19T02:53:40;0.60;99.90
22923;DHT22;11627;51.322;22.816;2023-11-19T02:56:08;0.60;99.90
22923;DHT22;11627;51.322;22.816;2023-11-19T02:58:52;0.60;99.90
22923;DHT22;11627;51.322;22.816;2023-11-19T03:01:25;0.50;99.90
22923;DHT22;11627;51.322;22.816;2023-11-19T03:04:00;0.50;99.90
22923;DHT22;11627;51.322;22.816;2023-11-19T03:06:29;0.50;99.90
22923;DHT22;11627;51.322;22.816;2023-11-19T03:08:56;0.50;99.90
22923;DHT22;11627;51.322;22.816;2023-11-19T03:11:23;0.50;99.90
22923;DHT22;11627;51.322;22.816;2023-11-19T03:13:51;0.50;99.90
22923;DHT22;11627;51.322;22.816;2023-11-19T03:16:18;0.60;99.90
22923;DHT22;11627;51.322;22.816;2023-11-19T03:18:45;0.60;99.90
22923;DHT22;11627;51.322;22.816;2023-11-19T03:21:12;0.60;99.90
22923;DHT22;11627;51.322;22.816;2023-11-19T03:23:40;0.60;99.90
22923;DHT22;11627;51.322;22.816;2023-11-19T03:26:07;0.60;99.90
22923;DHT22;11627;51.322;22.816;2023-11-19T03:28:36;0.50;99.90
22923;DHT22;11627;51.322;22.816;2023-11-19T03:31:07;0.60;99.90
22923;DHT22;11627;51.322;22.816;2023-11-19T03:33:36;0.50;99.90
22923;DHT22;11627;51.322;22.816;2023-11-19T03:36:03;0.50;99.90
22923;DHT22;11627;51.322;22.816;2023-11-19T03:38:31;0.50;99.90
22923;DHT22;11627;51.322;22.816;2023-11-19T03:40:58;0.60;99.90
22923;DHT22;11627;51.322;22.816;2023-11-19T03:43:25;0.50;99.90
22923;DHT22;11627;51.322;22.816;2023-11-19T03:45:52;0.50;99.90
22923;DHT22;11627;51.322;22.816;2023-11-19T03:48:19;0.50;99.90
22923;DHT22;11627;51.322;22.816;2023-11-19T03:50:46;0.50;99.90
22923;DHT22;11627;51.322;22.816;2023-11-19T03:53:13;0.50;99.90
22923;DHT22;11627;51.322;22.816;2023-11-19T03:55:41;0.50;99.90
22923;DHT22;11627;51.322;22.816;2023-11-19T03:58:08;0.50;99.90
22923;DHT22;11627;51.322;22.816;2023-11-19T04:00:35;0.50;99.90
22923;DHT22;11627;51.322;22.816;2023-11-19T04:03:02;0.50;99.90
22923;DHT22;11627;51.322;22.816;2023-11-19T04:05:29;0.60;99.90
22923;DHT22;11627;51.322;22.816;2023-11-19T04:07:56;0.60;99.90
22923;DHT22;11627;51.322;22.816;2023-11-19T04:10:22;0.60;99.90
22923;DHT22;11627;51.322;22.816;2023-11-19T04:12:50;0.70;99.90
22923;DHT22;11627;51.322;22.816;2023-11-19T04:15:16;0.80;99.90
22923;DHT22;11627;51.322;22.816;2023-11-19T04:17:43;0.80;99.90
22923;DHT22;11627;51.322;22.816;2023-11-19T04:20:11;0.70;99.90
22923;DHT22;11627;51.322;22.816;2023-11-19T04:22:40;0.70;99.90
22923;DHT22;11627;51.322;22.816;2023-11-19T04:25:07;0.70;99.90
22923;DHT22;11627;51.322;22.816;2023-11-19T04:27:35;0.60;99.90
22923;DHT22;11627;51.322;22.816;2023-11-19T04:30:02;0.60;99.90
22923;DHT22;11627;51.322;22.816;2023-11-19T04:32:30;0.60;99.90
22923;DHT22;11627;51.322;22.816;2023-11-19T04:34:57;0.60;99.90
22923;DHT22;11627;51.322;22.816;2023-11-19T04:37:24;0.70;99.90
22923;DHT22;11627;51.322;22.816;2023-11-19T04:39:51;0.70;99.90
22923;DHT22;11627;51.322;22.816;2023-11-19T04:42:18;0.80;99.90
22923;DHT22;11627;51.322;22.816;2023-11-19T04:44:46;0.90;99.90
22923;DHT22;11627;51.322;22.816;2023-11-19T04:47:13;0.90;99.90
22923;DHT22;11627;51.322;22.816;2023-11-19T04:49:43;0.90;99.90
22923;DHT22;11627;51.322;22.816;2023-11-19T04:52:11;0.80;99.90
22923;DHT22;11627;51.322;22.816;2023-11-19T04:54:44;0.80;99.90
22923;DHT22;11627;51.322;22.816;2023-11-19T04:57:11;0.80;99.90
22923;DHT22;11627;51.322;22.816;2023-11-19T04:59:39;0.80;99.90
22923;DHT22;11627;51.322;22.816;2023-11-19T05:02:06;0.80;99.90
22923;DHT22;11627;51.322;22.816;2023-11-19T05:04:33;0.80;99.90
22923;DHT22;11627;51.322;22.816;2023-11-19T05:07:01;0.80;99.90
22923;DHT22;11627;51.322;22.816;2023-11-19T05:09:28;0.80;99.90
22923;DHT22;11627;51.322;22.816;2023-11-19T05:11:55;0.80;99.90
22923;DHT22;11627;51.322;22.816;2023-11-19T05:14:22;0.70;99.90
22923;DHT22;11627;51.322;22.816;2023-11-19T05:16:51;0.80;99.90
22923;DHT22;11627;51.322;22.816;2023-11-19T05:19:18;0.70;99.90
22923;DHT22;11627;51.322;22.816;2023-11-19T05:21:45;0.60;99.90
22923;DHT22;11627;51.322;22.816;2023-11-19T05:24:12;0.70;99.90
22923;DHT22;11627;51.322;22.816;2023-11-19T05:26:40;0.60;99.90
22923;DHT22;11627;51.322;22.816;2023-11-19T05:29:07;0.60;99.90
22923;DHT22;11627;51.322;22.816;2023-11-19T05:31:34;0.60;99.90
22923;DHT22;11627;51.322;22.816;2023-11-19T05:34:02;0.70;99.90
22923;DHT22;11627;51.322;22.816;2023-11-19T05:36:29;0.70;99.90
22923;DHT22;11627;51.322;22.816;2023-11-19T05:38:56;0.70;99.90
22923;DHT22;11627;51.322;22.816;2023-11-19T05:41:25;0.70;99.90
22923;DHT22;11627;51.322;22.816;2023-11-19T05:43:52;0.70;99.90
22923;DHT22;11627;51.322;22.816;2023-11-19T05:46:18;0.70;99.90
22923;DHT22;11627;51.322;22.816;2023-11-19T05:48:46;0.70;99.90
22923;DHT22;11627;51.322;22.816;2023-11-19T05:51:13;0.80;99.90
22923;DHT22;11627;51.322;22.816;2023-11-19T05:53:41;0.70;99.90
22923;DHT22;11627;51.322;22.816;2023-11-19T05:56:09;0.70;99.90
22923;DHT22;11627;51.322;22.816;2023-11-19T05:58:36;0.70;99.90
22923;DHT22;11627;51.322;22.816;2023-11-19T06:01:04;0.60;99.90
22923;DHT22;11627;51.322;22.816;2023-11-19T06:03:32;0.70;99.90
22923;DHT22;11627;51.322;22.816;2023-11-19T06:06:00;0.60;99.90
22923;DHT22;11627;51.322;22.816;2023-11-19T06:08:27;0.60;99.90
22923;DHT22;11627;51.322;22.816;2023-11-19T06:10:54;0.60;99.90
22923;DHT22;11627;51.322;22.816;2023-11-19T06:13:21;0.60;99.90
22923;DHT22;11627;51.322;22.816;2023-11-19T06:15:49;0.70;99.90
22923;DHT22;11627;51.322;22.816;2023-11-19T06:18:17;0.70;99.90
22923;DHT22;11627;51.322;22.816;2023-11-19T06:20:46;0.70;99.90
22923;DHT22;11627;51.322;22.816;2023-11-19T06:23:13;0.70;99.90
22923;DHT22;11627;51.322;22.816;2023-11-19T06:25:41;0.70;99.90
22923;DHT22;11627;51.322;22.816;2023-11-19T06:28:08;0.80;99.90
22923;DHT22;11627;51.322;22.816;2023-11-19T06:30:35;0.80;99.90
22923;DHT22;11627;51.322;22.816;2023-11-19T06:33:02;0.80;99.90
22923;DHT22;11627;51.322;22.816;2023-11-19T06:35:29;0.90;99.90
22923;DHT22;11627;51.322;22.816;2023-11-19T06:38:03;0.80;99.90
22923;DHT22;11627;51.322;22.816;2023-11-19T06:40:31;0.90;99.90
22923;DHT22;11627;51.322;22.816;2023-11-19T06:42:59;0.80;99.90
22923;DHT22;11627;51.322;22.816;2023-11-19T06:45:26;0.80;99.90
22923;DHT22;11627;51.322;22.816;2023-11-19T06:47:53;0.80;99.90
22923;DHT22;11627;51.322;22.816;2023-11-19T06:50:19;0.80;99.90
22923;DHT22;11627;51.322;22.816;2023-11-19T06:52:47;0.80;99.90
22923;DHT22;11627;51.322;22.816;2023-11-19T06:55:13;0.80;99.90
22923;DHT22;11627;51.322;22.816;2023-11-19T06:57:40;0.80;99.90
22923;DHT22;11627;51.322;22.816;2023-11-19T07:00:06;0.80;99.90
22923;DHT22;11627;51.322;22.816;2023-11-19T07:02:35;0.80;99.90
22923;DHT22;11627;51.322;22.816;2023-11-19T07:05:03;0.80;99.90
22923;DHT22;11627;51.322;22.816;2023-11-19T07:07:32;0.90;99.90
22923;DHT22;11627;51.322;22.816;2023-11-19T07:10:03;0.90;99.90
22923;DHT22;11627;51.322;22.816;2023-11-19T07:12:31;0.90;99.90
22923;DHT22;11627;51.322;22.816;2023-11-19T07:14:58;0.90;99.90
22923;DHT22;11627;51.322;22.816;2023-11-19T07:17:27;0.90;99.90
22923;DHT22;11627;51.322;22.816;2023-11-19T07:19:54;0.80;99.90
22923;DHT22;11627;51.322;22.816;2023-11-19T07:22:21;0.80;99.90
22923;DHT22;11627;51.322;22.816;2023-11-19T07:24:48;0.80;99.90
22923;DHT22;11627;51.322;22.816;2023-11-19T07:27:15;0.80;99.90
22923;DHT22;11627;51.322;22.816;2023-11-19T07:29:45;0.80;99.90
22923;DHT22;11627;51.322;22.816;2023-11-19T07:32:13;0.80;99.90
22923;DHT22;11627;51.322;22.816;2023-11-19T07:34:43;0.90;99.90
22923;DHT22;11627;51.322;22.816;2023-11-19T07:37:10;0.90;99.90
22923;DHT22;11627;51.322;22.816;2023-11-19T07:39:38;1.00;99.90
22923;DHT22;11627;51.322;22.816;2023-11-19T07:42:07;1.00;99.90
22923;DHT22;11627;51.322;22.816;2023-11-19T07:44:35;1.00;99.90
22923;DHT22;11627;51.322;22.816;2023-11-19T07:47:05;1.00;99.90
22923;DHT22;11627;51.322;22.816;2023-11-19T07:49:32;0.90;99.90
22923;DHT22;11627;51.322;22.816;2023-11-19T07:51:59;0.90;99.90
22923;DHT22;11627;51.322;22.816;2023-11-19T07:54:26;1.00;99.90
22923;DHT22;11627;51.322;22.816;2023-11-19T07:56:53;1.00;99.90
22923;DHT22;11627;51.322;22.816;2023-11-19T07:59:21;1.00;99.90
22923;DHT22;11627;51.322;22.816;2023-11-19T08:01:48;1.00;99.90
22923;DHT22;11627;51.322;22.816;2023-11-19T08:04:30;1.10;99.90
22923;DHT22;11627;51.322;22.816;2023-11-19T08:06:58;1.10;99.90
22923;DHT22;11627;51.322;22.816;2023-11-19T08:09:25;1.00;99.90
22923;DHT22;11627;51.322;22.816;2023-11-19T08:11:55;1.00;99.90
22923;DHT22;11627;51.322;22.816;2023-11-19T08:14:23;1.00;99.90
22923;DHT22;11627;51.322;22.816;2023-11-19T08:16:50;1.00;99.90
22923;DHT22;11627;51.322;22.816;2023-11-19T08:19:17;0.90;99.90
22923;DHT22;11627;51.322;22.816;2023-11-19T08:21:44;1.00;99.90
22923;DHT22;11627;51.322;22.816;2023-11-19T08:24:11;1.10;99.90
22923;DHT22;11627;51.322;22.816;2023-11-19T08:26:39;1.10;99.90
22923;DHT22;11627;51.322;22.816;2023-11-19T08:29:05;1.10;99.90
22923;DHT22;11627;51.322;22.816;2023-11-19T08:31:33;1.20;99.90
22923;DHT22;11627;51.322;22.816;2023-11-19T08:34:00;1.20;99.90
22923;DHT22;11627;51.322;22.816;2023-11-19T08:36:27;1.20;99.90
22923;DHT22;11627;51.322;22.816;2023-11-19T08:38:54;1.30;99.90
22923;DHT22;11627;51.322;22.816;2023-11-19T08:41:21;1.30;99.90
22923;DHT22;11627;51.322;22.816;2023-11-19T08:43:50;1.30;99.90
22923;DHT22;11627;51.322;22.816;2023-11-19T08:46:18;1.40;99.90
22923;DHT22;11627;51.322;22.816;2023-11-19T08:48:45;1.40;99.90
22923;DHT22;11627;51.322;22.816;2023-11-19T08:51:13;1.40;99.90
22923;DHT22;11627;51.322;22.816;2023-11-19T08:53:40;1.40;99.90
22923;DHT22;11627;51.322;22.816;2023-11-19T08:56:07;1.40;99.90
22923;DHT22;11627;51.322;22.816;2023-11-19T08:58:34;1.40;99.90
22923;DHT22;11627;51.322;22.816;2023-11-19T09:01:03;1.40;99.90
22923;DHT22;11627;51.322;22.816;2023-11-19T09:03:33;1.40;99.90
22923;DHT22;11627;51.322;22.816;2023-11-19T09:06:00;1.50;99.90
22923;DHT22;11627;51.322;22.816;2023-11-19T09:08:28;1.40;99.90
22923;DHT22;11627;51.322;22.816;2023-11-19T09:10:57;1.50;99.90
22923;DHT22;11627;51.322;22.816;2023-11-19T09:13:25;1.40;99.90
22923;DHT22;11627;51.322;22.816;2023-11-19T09:15:52;1.40;99.90
22923;DHT22;11627;51.322;22.816;2023-11-19T09:18:19;1.40;99.90
22923;DHT22;11627;51.322;22.816;2023-11-19T09:20:46;1.40;99.90
22923;DHT22;11627;51.322;22.816;2023-11-19T09:23:13;1.40;99.90
22923;DHT22;11627;51.322;22.816;2023-11-19T09:25:42;1.40;99.90
22923;DHT22;11627;51.322;22.816;2023-11-19T09:28:09;1.40;99.90
22923;DHT22;11627;51.322;22.816;2023-11-19T09:30:36;1.40;99.90
22923;DHT22;11627;51.322;22.816;2023-11-19T09:33:03;1.40;99.90
22923;DHT22;11627;51.322;22.816;2023-11-19T09:35:31;1.40;99.90
22923;DHT22;11627;51.322;22.816;2023-11-19T09:37:58;1.40;99.90
22923;DHT22;11627;51.322;22.816;2023-11-19T09:40:24;1.40;99.90
22923;DHT22;11627;51.322;22.816;2023-11-19T09:42:52;1.40;99.90
22923;DHT22;11627;51.322;22.816;2023-11-19T09:45:21;1.40;99.90
22923;DHT22;11627;51.322;22.816;2023-11-19T09:47:51;1.40;99.90
22923;DHT22;11627;51.322;22.816;2023-11-19T09:50:19;1.40;99.90
22923;DHT22;11627;51.322;22.816;2023-11-19T09:52:47;1.40;99.90
22923;DHT22;11627;51.322;22.816;2023-11-19T09:55:14;1.40;99.90
22923;DHT22;11627;51.322;22.816;2023-11-19T09:57:41;1.50;99.90
22923;DHT22;11627;51.322;22.816;2023-11-19T10:00:10;1.50;99.90
22923;DHT22;11627;51.322;22.816;2023-11-19T10:02:39;1.50;99.90
22923;DHT22;11627;51.322;22.816;2023-11-19T10:05:07;1.40;99.90
22923;DHT22;11627;51.322;22.816;2023-11-19T10:07:33;1.40;99.90
22923;DHT22;11627;51.322;22.816;2023-11-19T10:10:02;1.50;99.90
22923;DHT22;11627;51.322;22.816;2023-11-19T10:12:31;1.40;99.90
22923;DHT22;11627;51.322;22.816;2023-11-19T10:14:59;1.40;99.90
22923;DHT22;11627;51.322;22.816;2023-11-19T10:17:33;1.40;99.90
22923;DHT22;11627;51.322;22.816;2023-11-19T10:20:01;1.50;99.90
22923;DHT22;11627;51.322;22.816;2023-11-19T10:22:29;1.50;99.40
22923;DHT22;11627;51.322;22.816;2023-11-19T10:24:56;1.50;99.10
22923;DHT22;11627;51.322;22.816;2023-11-19T10:27:26;1.50;99.90
22923;DHT22;11627;51.322;22.816;2023-11-19T10:29:53;1.50;99.10
22923;DHT22;11627;51.322;22.816;2023-11-19T10:32:20;1.60;99.00
22923;DHT22;11627;51.322;22.816;2023-11-19T10:34:48;1.60;95.90
22923;DHT22;11627;51.322;22.816;2023-11-19T10:37:32;1.60;96.70
22923;DHT22;11627;51.322;22.816;2023-11-19T10:40:02;1.70;95.80
22923;DHT22;11627;51.322;22.816;2023-11-19T10:42:33;1.60;94.80
22923;DHT22;11627;51.322;22.816;2023-11-19T10:45:00;1.60;95.00
22923;DHT22;11627;51.322;22.816;2023-11-19T10:47:28;1.60;97.60
22923;DHT22;11627;51.322;22.816;2023-11-19T10:49:57;1.70;96.80
22923;DHT22;11627;51.322;22.816;2023-11-19T10:52:25;1.70;96.50
22923;DHT22;11627;51.322;22.816;2023-11-19T10:54:55;1.60;95.60
22923;DHT22;11627;51.322;22.816;2023-11-19T10:57:30;1.60;95.60
22923;DHT22;11627;51.322;22.816;2023-11-19T11:00:02;1.70;95.00
22923;DHT22;11627;51.322;22.816;2023-11-19T11:02:40;1.70;94.20
22923;DHT22;11627;51.322;22.816;2023-11-19T11:05:08;1.70;94.30
22923;DHT22;11627;51.322;22.816;2023-11-19T11:07:36;1.60;92.50
22923;DHT22;11627;51.322;22.816;2023-11-19T11:10:05;1.60;92.50
22923;DHT22;11627;51.322;22.816;2023-11-19T11:12:37;1.60;90.20
22923;DHT22;11627;51.322;22.816;2023-11-19T11:15:07;1.70;90.00
22923;DHT22;11627;51.322;22.816;2023-11-19T11:17:35;1.70;89.80
22923;DHT22;11627;51.322;22.816;2023-11-19T11:20:04;1.70;90.40
22923;DHT22;11627;51.322;22.816;2023-11-19T11:22:50;1.70;90.40
22923;DHT22;11627;51.322;22.816;2023-11-19T11:29:14;1.50;88.10
22923;DHT22;11627;51.322;22.816;2023-11-19T11:38:23;1.50;90.40
22923;DHT22;11627;51.322;22.816;2023-11-19T11:41:24;1.50;93.10
22923;DHT22;11627;51.322;22.816;2023-11-19T11:43:54;1.60;92.60
22923;DHT22;11627;51.322;22.816;2023-11-19T11:59:47;1.50;93.20
22923;DHT22;11627;51.322;22.816;2023-11-19T12:02:17;1.60;93.50
22923;DHT22;11627;51.322;22.816;2023-11-19T12:04:52;1.60;93.50
22923;DHT22;11627;51.322;22.816;2023-11-19T12:07:38;1.50;93.80
22923;DHT22;11627;51.322;22.816;2023-11-19T12:10:10;1.50;94.20
22923;DHT22;11627;51.322;22.816;2023-11-19T12:12:39;1.50;97.00
22923;DHT22;11627;51.322;22.816;2023-11-19T12:15:11;1.40;97.30
22923;DHT22;11627;51.322;22.816;2023-11-19T12:17:47;1.50;99.90
22923;DHT22;11627;51.322;22.816;2023-11-19T12:20:21;1.40;99.90
22923;DHT22;11627;51.322;22.816;2023-11-19T12:22:49;1.40;99.90
22923;DHT22;11627;51.322;22.816;2023-11-19T12:25:18;1.30;99.90
22923;DHT22;11627;51.322;22.816;2023-11-19T12:27:50;1.30;99.90
22923;DHT22;11627;51.322;22.816;2023-11-19T12:30:26;1.20;99.90
22923;DHT22;11627;51.322;22.816;2023-11-19T12:32:55;1.20;99.90
22923;DHT22;11627;51.322;22.816;2023-11-19T12:35:22;1.20;99.90
22923;DHT22;11627;51.322;22.816;2023-11-19T12:37:51;1.20;99.90
22923;DHT22;11627;51.322;22.816;2023-11-19T12:40:18;1.20;99.90
22923;DHT22;11627;51.322;22.816;2023-11-19T12:42:47;1.20;99.90
22923;DHT22;11627;51.322;22.816;2023-11-19T12:45:14;1.20;99.90
22923;DHT22;11627;51.322;22.816;2023-11-19T12:47:46;1.20;99.90
22923;DHT22;11627;51.322;22.816;2023-11-19T12:50:16;1.20;99.90
22923;DHT22;11627;51.322;22.816;2023-11-19T12:52:58;1.30;99.90
22923;DHT22;11627;51.322;22.816;2023-11-19T12:55:30;1.20;99.90
22923;DHT22;11627;51.322;22.816;2023-11-19T12:57:59;1.20;99.90
22923;DHT22;11627;51.322;22.816;2023-11-19T13:00:26;1.20;99.90
22923;DHT22;11627;51.322;22.816;2023-11-19T13:02:55;1.20;99.90
22923;DHT22;11627;51.322;22.816;2023-11-19T13:05:34;1.20;99.90
22923;DHT22;11627;51.322;22.816;2023-11-19T13:10:52;1.20;99.90
22923;DHT22;11627;51.322;22.816;2023-11-19T13:13:19;1.30;99.90
22923;DHT22;11627;51.322;22.816;2023-11-19T13:15:47;1.30;99.90
22923;DHT22;11627;51.322;22.816;2023-11-19T13:18:31;1.40;99.90
22923;DHT22;11627;51.322;22.816;2023-11-19T13:20:58;1.40;99.90
22923;DHT22;11627;51.322;22.816;2023-11-19T13:23:26;1.40;99.90
22923;DHT22;11627;51.322;22.816;2023-11-19T13:25:53;1.40;99.90
22923;DHT22;11627;51.322;22.816;2023-11-19T13:28:20;1.40;99.90
22923;DHT22;11627;51.322;22.816;2023-11-19T13:30:47;1.40;99.90
22923;DHT22;11627;51.322;22.816;2023-11-19T13:33:14;1.40;99.90
22923;DHT22;11627;51.322;22.816;2023-11-19T13:35:41;1.40;99.90
22923;DHT22;11627;51.322;22.816;2023-11-19T13:38:08;1.40;99.90
22923;DHT22;11627;51.322;22.816;2023-11-19T13:40:36;1.40;99.90
22923;DHT22;11627;51.322;22.816;2023-11-19T13:43:03;1.40;99.90
22923;DHT22;11627;51.322;22.816;2023-11-19T13:45:30;1.40;99.90
22923;DHT22;11627;51.322;22.816;2023-11-19T13:47:57;1.40;99.90
22923;DHT22;11627;51.322;22.816;2023-11-19T13:50:23;1.40;99.90
22923;DHT22;11627;51.322;22.816;2023-11-19T13:52:50;1.40;99.90
22923;DHT22;11627;51.322;22.816;2023-11-19T13:55:16;1.40;99.90
22923;DHT22;11627;51.322;22.816;2023-11-19T13:57:43;1.40;99.90
22923;DHT22;11627;51.322;22.816;2023-11-19T14:00:11;1.30;99.90
22923;DHT22;11627;51.322;22.816;2023-11-19T14:02:46;1.30;99.90
22923;DHT22;11627;51.322;22.816;2023-11-19T14:05:13;1.30;99.90
22923;DHT22;11627;51.322;22.816;2023-11-19T14:07:44;1.30;99.90
22923;DHT22;11627;51.322;22.816;2023-11-19T14:10:11;1.30;99.90
22923;DHT22;11627;51.322;22.816;2023-11-19T14:12:41;1.30;99.90
22923;DHT22;11627;51.322;22.816;2023-11-19T14:15:09;1.30;99.90
22923;DHT22;11627;51.322;22.816;2023-11-19T14:17:40;1.30;99.90
22923;DHT22;11627;51.322;22.816;2023-11-19T14:20:06;1.30;99.90
22923;DHT22;11627;51.322;22.816;2023-11-19T14:22:40;1.30;99.90
22923;DHT22;11627;51.322;22.816;2023-11-19T14:25:07;1.20;99.90
22923;DHT22;11627;51.322;22.816;2023-11-19T14:27:39;1.30;99.90
22923;DHT22;11627;51.322;22.816;2023-11-19T14:30:07;1.30;99.90
22923;DHT22;11627;51.322;22.816;2023-11-19T14:32:39;1.30;99.90
22923;DHT22;11627;51.322;22.816;2023-11-19T14:35:06;1.30;99.90
22923;DHT22;11627;51.322;22.816;2023-11-19T14:37:34;1.30;99.90
22923;DHT22;11627;51.322;22.816;2023-11-19T14:40:01;1.30;99.90
22923;DHT22;11627;51.322;22.816;2023-11-19T14:42:48;1.20;99.90
22923;DHT22;11627;51.322;22.816;2023-11-19T14:45:15;1.30;99.90
22923;DHT22;11627;51.322;22.816;2023-11-19T14:47:44;1.30;99.90
22923;DHT22;11627;51.322;22.816;2023-11-19T14:50:11;1.30;99.90
22923;DHT22;11627;51.322;22.816;2023-11-19T14:52:38;1.30;99.90
22923;DHT22;11627;51.322;22.816;2023-11-19T14:55:06;1.30;99.90
22923;DHT22;11627;51.322;22.816;2023-11-19T14:57:33;1.30;99.90
22923;DHT22;11627;51.322;22.816;2023-11-19T15:00:02;1.30;99.90
22923;DHT22;11627;51.322;22.816;2023-11-19T15:02:40;1.30;99.90
22923;DHT22;11627;51.322;22.816;2023-11-19T15:05:17;1.20;99.90
22923;DHT22;11627;51.322;22.816;2023-11-19T15:07:44;1.80;99.90
22923;DHT22;11627;51.322;22.816;2023-11-19T15:10:12;1.20;99.90
22923;DHT22;11627;51.322;22.816;2023-11-19T15:12:38;1.20;99.90
22923;DHT22;11627;51.322;22.816;2023-11-19T15:15:09;1.20;99.90
22923;DHT22;11627;51.322;22.816;2023-11-19T15:17:41;1.20;99.90
22923;DHT22;11627;51.322;22.816;2023-11-19T15:20:07;1.20;99.90
22923;DHT22;11627;51.322;22.816;2023-11-19T15:22:35;1.20;99.90
22923;DHT22;11627;51.322;22.816;2023-11-19T15:25:01;1.20;99.90
22923;DHT22;11627;51.322;22.816;2023-11-19T15:27:29;1.20;99.90
22923;DHT22;11627;51.322;22.816;2023-11-19T15:29:57;1.20;99.90
22923;DHT22;11627;51.322;22.816;2023-11-19T15:32:25;1.20;99.90
22923;DHT22;11627;51.322;22.816;2023-11-19T15:34:52;1.20;99.90
22923;DHT22;11627;51.322;22.816;2023-11-19T15:37:19;1.10;99.90
22923;DHT22;11627;51.322;22.816;2023-11-19T15:39:47;1.10;99.90
22923;DHT22;11627;51.322;22.816;2023-11-19T15:42:15;1.20;99.90
22923;DHT22;11627;51.322;22.816;2023-11-19T15:44:42;1.20;99.90
22923;DHT22;11627;51.322;22.816;2023-11-19T15:47:10;1.20;99.90
22923;DHT22;11627;51.322;22.816;2023-11-19T15:49:39;1.20;99.90
22923;DHT22;11627;51.322;22.816;2023-11-19T15:52:06;1.10;99.90
22923;DHT22;11627;51.322;22.816;2023-11-19T15:54:33;1.10;99.90
22923;DHT22;11627;51.322;22.816;2023-11-19T15:57:01;1.10;99.90
22923;DHT22;11627;51.322;22.816;2023-11-19T15:59:28;1.10;99.90
22923;DHT22;11627;51.322;22.816;2023-11-19T16:01:55;1.10;99.90
22923;DHT22;11627;51.322;22.816;2023-11-19T16:04:23;1.10;99.90